Barbarossa — IBJD — position and weather

sailwx.info

Track history (hours):
 
Tides and Currents Weather Stations Pressure Air Temp Water Temp Dewpoint Dewpoint Depression Visibility Wind Speed Wind Dir Waves Ship Positions

Barbarossa

Last reported at 2019-Jun-16 23:21 UTC. Time now 2019-Jun-17 18:48 UTC.
Position N 44°06' E 013°23'.

Length 294 m; draft 8.1 m.

Type: Ship. MMSI: 247282900.

Date/timePositionNaut miles runAvg speedWind from/ knotsBaromVisibWave heightAir tempDewpointWater temp
2019-Jun-16 23:21N 44°06' E 013°23'721.2
2019-Jun-16 23:01N 44°10' E 013°14'1120.8
2019-Jun-16 22:30N 44°20' E 013°09'1021.1
2019-Jun-16 22:01N 44°30' E 013°04'603604.4
2019-Jun-16 22:00N 43°30' E 013°00'70144.7 250 / 191014.0 5.4 25.022.226.0
2019-Jun-16 21:30N 44°40' E 012°60'1020.6
2019-Jun-16 21:00N 44°49' E 012°54'1020.3
2019-Jun-16 20:31N 44°59' E 012°48'917.6
2019-Jun-16 20:00N 45°06' E 012°42'917.5
2019-Jun-16 19:31N 45°11' E 012°31'816.7
2019-Jun-16 19:00N 45°19' E 012°30'713.3
2019-Jun-16 18:30N 45°25' E 012°26'3 5.1
2019-Jun-16 18:00N 45°25' E 012°22'2 4.2
2019-Jun-16 17:30N 45°26' E 012°19'1 1.5
2019-Jun-16 17:00N 45°26' E 012°19'0 0.0
2019-Jun-16 16:29N 45°26' E 012°19'0 0.0
2019-Jun-16 16:00N 45°26' E 012°19'0 0.0
2019-Jun-16 15:30N 45°26' E 012°19'0 0.0
2019-Jun-16 15:01N 45°26' E 012°19'0 0.0
2019-Jun-16 14:30N 45°26' E 012°19'0 0.0
2019-Jun-16 14:01N 45°26' E 012°19'0 0.0
2019-Jun-16 13:30N 45°26' E 012°19'0 0.0
2019-Jun-16 13:00N 45°26' E 012°19'0 0.0
2019-Jun-16 12:30N 45°26' E 012°19'0 0.0
2019-Jun-16 12:00N 45°26' E 012°19'0 0.0
2019-Jun-16 11:30N 45°26' E 012°19'0 0.0
2019-Jun-16 11:00N 45°26' E 012°19'0 0.0
2019-Jun-16 10:30N 45°26' E 012°19'0 0.0
2019-Jun-16 10:00N 45°26' E 012°19'0 0.0
2019-Jun-16 09:30N 45°26' E 012°19'0 0.0
2019-Jun-16 09:01N 45°26' E 012°19'0 0.0
2019-Jun-16 08:30N 45°26' E 012°19'0 0.0
2019-Jun-16 08:01N 45°26' E 012°19'0 0.0
2019-Jun-16 07:30N 45°26' E 012°19'0 1.0
2019-Jun-16 07:00N 45°26' E 012°19'2 4.3
2019-Jun-16 06:31N 45°25' E 012°22'2 5.0
2019-Jun-16 06:01N 45°26' E 012°25'510.5
2019-Jun-16 05:30N 45°23' E 012°31'612.1
2019-Jun-16 05:00N 45°17' E 012°33'2136.7
2019-Jun-16 05:00N 45°18' E 012°30'918.4 270 / 151013.0 5.4 25.020.724.0
2019-Jun-16 04:30N 45°13' E 012°40'816.8
2019-Jun-16 04:00N 45°07' E 012°49'917.1
2019-Jun-16 03:31N 44°59' E 012°54'917.3
2019-Jun-16 03:00N 44°51' E 012°59'917.2
2019-Jun-16 02:30N 44°43' E 013°03'917.4
2019-Jun-16 02:00N 44°35' E 013°07'5306.7
2019-Jun-16 02:00N 44°30' E 013°06'5 9.4 280 / 211015.010.8 24.021.123.0
2019-Jun-16 01:31N 44°27' E 013°11'917.5
2019-Jun-16 01:00N 44°18' E 013°14'917.1
2019-Jun-16 00:30N 44°13' E 013°23'917.4
2019-Jun-16 00:00N 44°08' E 013°33'917.7
2019-Jun-15 23:30N 44°02' E 013°43'3221.4
2019-Jun-15 22:00N 43°42' E 014°18'14718.4 360 / 121014.010.8 25.022.226.0
2019-Jun-15 14:00N 42°36' E 017°18'31 3.9 040 / 51014.0 5.4 28.023.925.0
2019-Jun-15 06:00N 42°36' E 018°00'31 6.3 050 / 51015.010.8 27.021.324.0
2019-Jun-15 01:00N 42°06' E 018°12'7418.6 040 / 151014.010.8 24.021.124.0
2019-Jun-14 21:00N 40°54' E 018°36'12115.2 350 / 121016.0 5.4 22.021.3
2019-Jun-14 13:00N 39°00' E 019°30'19015.9 350 / 191017.0 5.4 25.020.725.0
2019-Jun-14 01:00N 36°24' E 021°48'7214.5 360 / 91017.0 5.4 23.021.624.0
2019-Jun-13 20:00N 36°24' E 023°18'8820.1 360 / 111016.010.8 24.021.924.0
2019-Jun-13 15:38N 37°13' E 024°49'217.6
2019-Jun-13 15:30N 37°14' E 024°51'917.9
2019-Jun-13 15:00N 37°20' E 024°59'918.1
2019-Jun-13 14:31N 37°27' E 025°07'815.6
2019-Jun-13 14:00N 37°28' E 025°17'2 3.6
2019-Jun-13 13:25N 37°27' E 025°19'0 0.0
2019-Jun-13 12:58N 37°27' E 025°19'0 0.0
2019-Jun-13 12:24N 37°27' E 025°19'0 0.0
2019-Jun-13 12:00N 37°27' E 025°19'0 0.0
2019-Jun-13 11:22N 37°27' E 025°19'0 0.0
2019-Jun-13 10:58N 37°27' E 025°19'0 0.0
2019-Jun-13 10:30N 37°27' E 025°19'0 0.0
2019-Jun-13 09:59N 37°27' E 025°19'0 0.0
2019-Jun-13 09:29N 37°27' E 025°19'3 7.1
2019-Jun-13 09:00N 37°24' E 025°18'3200.4 340 / 201016.010.8 25.020.723.0
2019-Jun-13 08:58N 37°27' E 025°19'0 0.0
2019-Jun-13 08:30N 37°27' E 025°19'0 0.0
2019-Jun-13 08:00N 37°27' E 025°19'0 0.0
2019-Jun-13 07:30N 37°27' E 025°19'0 0.0
2019-Jun-13 07:00N 37°27' E 025°19'0 0.0
2019-Jun-13 06:28N 37°27' E 025°19'0 0.0
2019-Jun-13 05:58N 37°27' E 025°19'0 0.0
2019-Jun-13 05:30N 37°27' E 025°19'0 0.0
2019-Jun-13 05:00N 37°27' E 025°19'0 0.0
2019-Jun-13 04:30N 37°27' E 025°19'0 0.0
2019-Jun-13 04:00N 37°27' E 025°19'0 0.2
2019-Jun-13 03:30N 37°27' E 025°19'4 7.5
2019-Jun-13 03:00N 37°27' E 025°15'611.7
2019-Jun-13 02:30N 37°25' E 025°08'613.0
2019-Jun-13 02:00N 37°19' E 025°06'713.5
2019-Jun-13 01:30N 37°16' E 024°58'713.7
2019-Jun-13 01:00N 37°14' E 024°50'1413.5
2019-Jun-13 00:00N 37°00' E 024°48'46 5.8 330 / 111016.010.8 25.020.723.0
2019-Jun-12 16:00N 36°24' E 025°24'0 0.0 160 / 91014.0 5.4 25.022.923.0
2019-Jun-12 11:00N 36°24' E 025°24'22314.8 010 / 71016.0 5.4 27.022.822.0
2019-Jun-11 20:00N 37°18' E 020°54'7418.5 250 / 101014.0 2.2 24.022.624.0
2019-Jun-11 16:00N 38°24' E 020°12'7310.5 1012.010.8 27.523.325.0
2019-Jun-11 09:00N 39°36' E 019°54'13 2.6 1012.0 5.4 25.021.423.0
2019-Jun-11 04:00N 39°48' E 019°48'11616.6 120 / 101011.0 5.4 24.021.122.0
2019-Jun-10 21:00N 41°00' E 017°48'21911.0 360 / 51012.010.8 23.021.623.0
2019-Jun-10 01:00N 43°30' E 014°12'766.9 180 / 61018.010.8 23.020.123.0
2019-Jun-10 00:53N 43°36' E 014°15'719.5
2019-Jun-10 00:30N 43°42' E 014°07'1219.2
2019-Jun-09 23:52N 43°50' E 013°55'2019.0
2019-Jun-09 22:48N 44°02' E 013°32'618.9
2019-Jun-09 22:30N 44°05' E 013°26'1937.4
2019-Jun-09 22:00N 44°18' E 013°06'8108.1 090 / 101019.0 5.4 24.021.125.0
2019-Jun-09 21:55N 44°11' E 013°13'818.8
2019-Jun-09 21:30N 44°19' E 013°10'918.4
2019-Jun-09 21:00N 44°27' E 013°06'918.5
2019-Jun-09 20:30N 44°36' E 013°02'918.7
2019-Jun-09 20:00N 44°45' E 012°58'918.9
2019-Jun-09 19:30N 44°53' E 012°52'919.0
2019-Jun-09 19:00N 45°02' E 012°45'918.0
2019-Jun-09 18:31N 45°09' E 012°37'816.3
2019-Jun-09 18:00N 45°15' E 012°30'815.8
2019-Jun-09 17:30N 45°23' E 012°29'5 9.1
2019-Jun-09 17:00N 45°26' E 012°24'2 4.4
2019-Jun-09 16:30N 45°26' E 012°21'2 4.0
2019-Jun-09 16:00N 45°26' E 012°18'0 0.7
2019-Jun-09 15:28N 45°26' E 012°18'0 0.0
2019-Jun-09 15:00N 45°26' E 012°18'0 0.0
2019-Jun-09 14:26N 45°26' E 012°18'0 0.0
2019-Jun-09 13:59N 45°26' E 012°18'0 0.0
2019-Jun-09 13:29N 45°26' E 012°18'0 0.0
2019-Jun-09 12:58N 45°26' E 012°18'0 0.0
2019-Jun-09 12:28N 45°26' E 012°18'0 0.0
2019-Jun-09 12:00N 45°26' E 012°18'0 0.0
2019-Jun-09 11:30N 45°26' E 012°18'0 0.0
2019-Jun-09 11:00N 45°26' E 012°18'0 0.0
2019-Jun-09 10:29N 45°26' E 012°18'2 4.5
2019-Jun-09 10:00N 45°24' E 012°18'269.5 060 / 71023.027.0 30.024.624.0
2019-Jun-09 09:58N 45°26' E 012°18'0 0.0
2019-Jun-09 09:29N 45°26' E 012°18'0 0.0
2019-Jun-09 08:59N 45°26' E 012°18'0 0.0
2019-Jun-09 08:29N 45°26' E 012°18'0 0.0
2019-Jun-09 07:59N 45°26' E 012°18'0 0.0
2019-Jun-09 07:29N 45°26' E 012°18'0 0.0
2019-Jun-09 06:58N 45°26' E 012°18'0 0.0
2019-Jun-09 06:30N 45°26' E 012°18'0 0.3
2019-Jun-09 06:01N 45°26' E 012°18'2 3.5
2019-Jun-09 05:30N 45°26' E 012°21'2 4.2
2019-Jun-09 05:00N 45°26' E 012°24'1010.4
2019-Jun-09 04:00N 45°18' E 012°32'917.6
2019-Jun-09 03:30N 45°12' E 012°41'917.4
2019-Jun-09 03:00N 45°06' E 012°50'917.5
2019-Jun-09 02:30N 44°58' E 012°55'917.6
2019-Jun-09 02:00N 44°49' E 012°60'918.2
2019-Jun-09 01:30N 44°41' E 013°04'919.0
2019-Jun-09 01:00N 44°32' E 013°07'7410.8
2019-Jun-09 01:00N 44°36' E 013°00'1531.9 080 / 191021.010.8 25.020.722.0
2019-Jun-09 00:30N 44°23' E 013°11'918.4
2019-Jun-09 00:00N 44°16' E 013°19'918.9
2019-Jun-08 23:31N 44°10' E 013°30'1118.9
2019-Jun-08 22:56N 44°03' E 013°42'819.0
2019-Jun-08 22:30N 43°58' E 013°50'1019.1
2019-Jun-08 22:00N 43°53' E 014°02'1019.0
2019-Jun-08 21:30N 43°48' E 014°13'919.0
2019-Jun-08 21:00N 43°42' E 014°23'7402.1
2019-Jun-08 21:00N 43°36' E 014°18'1519.6 330 / 61022.0 5.4 22.020.522.0
2019-Jun-08 20:14N 43°32' E 014°38'418.9
2019-Jun-08 20:00N 43°29' E 014°42'4119.1
2019-Jun-08 17:53N 43°01' E 015°23'1213.6
2019-Jun-08 17:00N 42°54' E 015°36'118 7.9 340 / 51021.0 5.4 23.018.521.0
2019-Jun-08 02:00N 42°12' E 018°06'1918.5 090 / 191021.010.8 21.019.520.0
2019-Jun-08 01:00N 41°54' E 018°12'4812.7 090 / 161021.010.8 21.019.519.0
2019-Jun-07 21:11N 41°08' E 018°34'315.7
2019-Jun-07 21:00N 41°06' E 018°35'815.5
2019-Jun-07 20:31N 40°58' E 018°37'1020.1
2019-Jun-07 20:00N 40°48' E 018°36'447.9 130 / 101021.0 5.4 22.020.521.0
2019-Jun-07 19:55N 40°49' E 018°40'11616.7
2019-Jun-07 13:00N 39°00' E 019°30'7615.2 270 / 131021.010.8 26.021.722.0
2019-Jun-07 08:00N 37°54' E 020°18'10715.3 310 / 181019.010.8 24.019.622.0
2019-Jun-07 01:00N 36°30' E 021°42'1111.4 320 / 241020.010.8 21.019.520.0
2019-Jun-07 00:00N 36°24' E 021°54'   320 / 221019.010.8 21.019.521.0
Track history (hours):
 
Tides and Currents Weather Stations Pressure Air Temp Water Temp Dewpoint Dewpoint Depression Visibility Wind Speed Wind Dir Waves Ship Positions

Barbarossa

Last reported at 2019-Jun-16 23:21 UTC. Time now 2019-Jun-17 18:48 UTC.
Position N 44°06' E 013°23'.

Length 294 m; draft 8.1 m.

Type: Ship. MMSI: 247282900.

Date/timePositionNaut miles runAvg speedWind from/ knotsBaromVisibWave heightAir tempDewpointWater temp
2019-Jun-16 23:21N 44°06' E 013°23'721.2
2019-Jun-16 23:01N 44°10' E 013°14'1120.8
2019-Jun-16 22:30N 44°20' E 013°09'1021.1
2019-Jun-16 22:01N 44°30' E 013°04'603604.4
2019-Jun-16 22:00N 43°30' E 013°00'70144.7 250 / 191014.0 5.4 25.022.226.0
2019-Jun-16 21:30N 44°40' E 012°60'1020.6
2019-Jun-16 21:00N 44°49' E 012°54'1020.3
2019-Jun-16 20:31N 44°59' E 012°48'917.6
2019-Jun-16 20:00N 45°06' E 012°42'917.5
2019-Jun-16 19:31N 45°11' E 012°31'816.7
2019-Jun-16 19:00N 45°19' E 012°30'713.3
2019-Jun-16 18:30N 45°25' E 012°26'3 5.1
2019-Jun-16 18:00N 45°25' E 012°22'2 4.2
2019-Jun-16 17:30N 45°26' E 012°19'1 1.5
2019-Jun-16 17:00N 45°26' E 012°19'0 0.0
2019-Jun-16 16:29N 45°26' E 012°19'0 0.0
2019-Jun-16 16:00N 45°26' E 012°19'0 0.0
2019-Jun-16 15:30N 45°26' E 012°19'0 0.0
2019-Jun-16 15:01N 45°26' E 012°19'0 0.0
2019-Jun-16 14:30N 45°26' E 012°19'0 0.0
2019-Jun-16 14:01N 45°26' E 012°19'0 0.0
2019-Jun-16 13:30N 45°26' E 012°19'0 0.0
2019-Jun-16 13:00N 45°26' E 012°19'0 0.0
2019-Jun-16 12:30N 45°26' E 012°19'0 0.0
2019-Jun-16 12:00N 45°26' E 012°19'0 0.0
2019-Jun-16 11:30N 45°26' E 012°19'0 0.0
2019-Jun-16 11:00N 45°26' E 012°19'0 0.0
2019-Jun-16 10:30N 45°26' E 012°19'0 0.0
2019-Jun-16 10:00N 45°26' E 012°19'0 0.0
2019-Jun-16 09:30N 45°26' E 012°19'0 0.0
2019-Jun-16 09:01N 45°26' E 012°19'0 0.0
2019-Jun-16 08:30N 45°26' E 012°19'0 0.0
2019-Jun-16 08:01N 45°26' E 012°19'0 0.0
2019-Jun-16 07:30N 45°26' E 012°19'0 1.0
2019-Jun-16 07:00N 45°26' E 012°19'2 4.3
2019-Jun-16 06:31N 45°25' E 012°22'2 5.0
2019-Jun-16 06:01N 45°26' E 012°25'510.5
2019-Jun-16 05:30N 45°23' E 012°31'612.1
2019-Jun-16 05:00N 45°17' E 012°33'2136.7
2019-Jun-16 05:00N 45°18' E 012°30'918.4 270 / 151013.0 5.4 25.020.724.0
2019-Jun-16 04:30N 45°13' E 012°40'816.8
2019-Jun-16 04:00N 45°07' E 012°49'917.1
2019-Jun-16 03:31N 44°59' E 012°54'917.3
2019-Jun-16 03:00N 44°51' E 012°59'917.2
2019-Jun-16 02:30N 44°43' E 013°03'917.4
2019-Jun-16 02:00N 44°35' E 013°07'5306.7
2019-Jun-16 02:00N 44°30' E 013°06'5 9.4 280 / 211015.010.8 24.021.123.0
2019-Jun-16 01:31N 44°27' E 013°11'917.5
2019-Jun-16 01:00N 44°18' E 013°14'917.1
2019-Jun-16 00:30N 44°13' E 013°23'917.4
2019-Jun-16 00:00N 44°08' E 013°33'917.7
2019-Jun-15 23:30N 44°02' E 013°43'3221.4
2019-Jun-15 22:00N 43°42' E 014°18'14718.4 360 / 121014.010.8 25.022.226.0
2019-Jun-15 14:00N 42°36' E 017°18'31 3.9 040 / 51014.0 5.4 28.023.925.0
2019-Jun-15 06:00N 42°36' E 018°00'31 6.3 050 / 51015.010.8 27.021.324.0
2019-Jun-15 01:00N 42°06' E 018°12'7418.6 040 / 151014.010.8 24.021.124.0
2019-Jun-14 21:00N 40°54' E 018°36'12115.2 350 / 121016.0 5.4 22.021.3
2019-Jun-14 13:00N 39°00' E 019°30'19015.9 350 / 191017.0 5.4 25.020.725.0
2019-Jun-14 01:00N 36°24' E 021°48'7214.5 360 / 91017.0 5.4 23.021.624.0
2019-Jun-13 20:00N 36°24' E 023°18'8820.1 360 / 111016.010.8 24.021.924.0
2019-Jun-13 15:38N 37°13' E 024°49'217.6
2019-Jun-13 15:30N 37°14' E 024°51'917.9
2019-Jun-13 15:00N 37°20' E 024°59'918.1
2019-Jun-13 14:31N 37°27' E 025°07'815.6
2019-Jun-13 14:00N 37°28' E 025°17'2 3.6
2019-Jun-13 13:25N 37°27' E 025°19'0 0.0
2019-Jun-13 12:58N 37°27' E 025°19'0 0.0
2019-Jun-13 12:24N 37°27' E 025°19'0 0.0
2019-Jun-13 12:00N 37°27' E 025°19'0 0.0
2019-Jun-13 11:22N 37°27' E 025°19'0 0.0
2019-Jun-13 10:58N 37°27' E 025°19'0 0.0
2019-Jun-13 10:30N 37°27' E 025°19'0 0.0
2019-Jun-13 09:59N 37°27' E 025°19'0 0.0
2019-Jun-13 09:29N 37°27' E 025°19'3 7.1
2019-Jun-13 09:00N 37°24' E 025°18'3200.4 340 / 201016.010.8 25.020.723.0
2019-Jun-13 08:58N 37°27' E 025°19'0 0.0
2019-Jun-13 08:30N 37°27' E 025°19'0 0.0
2019-Jun-13 08:00N 37°27' E 025°19'0 0.0
2019-Jun-13 07:30N 37°27' E 025°19'0 0.0
2019-Jun-13 07:00N 37°27' E 025°19'0 0.0
2019-Jun-13 06:28N 37°27' E 025°19'0 0.0
2019-Jun-13 05:58N 37°27' E 025°19'0 0.0
2019-Jun-13 05:30N 37°27' E 025°19'0 0.0
2019-Jun-13 05:00N 37°27' E 025°19'0 0.0
2019-Jun-13 04:30N 37°27' E 025°19'0 0.0
2019-Jun-13 04:00N 37°27' E 025°19'0 0.2
2019-Jun-13 03:30N 37°27' E 025°19'4 7.5
2019-Jun-13 03:00N 37°27' E 025°15'611.7
2019-Jun-13 02:30N 37°25' E 025°08'613.0
2019-Jun-13 02:00N 37°19' E 025°06'713.5
2019-Jun-13 01:30N 37°16' E 024°58'713.7
2019-Jun-13 01:00N 37°14' E 024°50'1413.5
2019-Jun-13 00:00N 37°00' E 024°48'46 5.8 330 / 111016.010.8 25.020.723.0
2019-Jun-12 16:00N 36°24' E 025°24'0 0.0 160 / 91014.0 5.4 25.022.923.0
2019-Jun-12 11:00N 36°24' E 025°24'22314.8 010 / 71016.0 5.4 27.022.822.0
2019-Jun-11 20:00N 37°18' E 020°54'7418.5 250 / 101014.0 2.2 24.022.624.0
2019-Jun-11 16:00N 38°24' E 020°12'7310.5 1012.010.8 27.523.325.0
2019-Jun-11 09:00N 39°36' E 019°54'13 2.6 1012.0 5.4 25.021.423.0
2019-Jun-11 04:00N 39°48' E 019°48'11616.6 120 / 101011.0 5.4 24.021.122.0
2019-Jun-10 21:00N 41°00' E 017°48'21911.0 360 / 51012.010.8 23.021.623.0
2019-Jun-10 01:00N 43°30' E 014°12'766.9 180 / 61018.010.8 23.020.123.0
2019-Jun-10 00:53N 43°36' E 014°15'719.5
2019-Jun-10 00:30N 43°42' E 014°07'1219.2
2019-Jun-09 23:52N 43°50' E 013°55'2019.0
2019-Jun-09 22:48N 44°02' E 013°32'618.9
2019-Jun-09 22:30N 44°05' E 013°26'1937.4
2019-Jun-09 22:00N 44°18' E 013°06'8108.1 090 / 101019.0 5.4 24.021.125.0
2019-Jun-09 21:55N 44°11' E 013°13'818.8
2019-Jun-09 21:30N 44°19' E 013°10'918.4
2019-Jun-09 21:00N 44°27' E 013°06'918.5
2019-Jun-09 20:30N 44°36' E 013°02'918.7
2019-Jun-09 20:00N 44°45' E 012°58'918.9
2019-Jun-09 19:30N 44°53' E 012°52'919.0
2019-Jun-09 19:00N 45°02' E 012°45'918.0
2019-Jun-09 18:31N 45°09' E 012°37'816.3
2019-Jun-09 18:00N 45°15' E 012°30'815.8
2019-Jun-09 17:30N 45°23' E 012°29'5 9.1
2019-Jun-09 17:00N 45°26' E 012°24'2 4.4
2019-Jun-09 16:30N 45°26' E 012°21'2 4.0
2019-Jun-09 16:00N 45°26' E 012°18'0 0.7
2019-Jun-09 15:28N 45°26' E 012°18'0 0.0
2019-Jun-09 15:00N 45°26' E 012°18'0 0.0
2019-Jun-09 14:26N 45°26' E 012°18'0 0.0
2019-Jun-09 13:59N 45°26' E 012°18'0 0.0
2019-Jun-09 13:29N 45°26' E 012°18'0 0.0
2019-Jun-09 12:58N 45°26' E 012°18'0 0.0
2019-Jun-09 12:28N 45°26' E 012°18'0 0.0
2019-Jun-09 12:00N 45°26' E 012°18'0 0.0
2019-Jun-09 11:30N 45°26' E 012°18'0 0.0
2019-Jun-09 11:00N 45°26' E 012°18'0 0.0
2019-Jun-09 10:29N 45°26' E 012°18'2 4.5
2019-Jun-09 10:00N 45°24' E 012°18'269.5 060 / 71023.027.0 30.024.624.0
2019-Jun-09 09:58N 45°26' E 012°18'0 0.0
2019-Jun-09 09:29N 45°26' E 012°18'0 0.0
2019-Jun-09 08:59N 45°26' E 012°18'0 0.0
2019-Jun-09 08:29N 45°26' E 012°18'0 0.0
2019-Jun-09 07:59N 45°26' E 012°18'0 0.0
2019-Jun-09 07:29N 45°26' E 012°18'0 0.0
2019-Jun-09 06:58N 45°26' E 012°18'0 0.0
2019-Jun-09 06:30N 45°26' E 012°18'0 0.3
2019-Jun-09 06:01N 45°26' E 012°18'2 3.5
2019-Jun-09 05:30N 45°26' E 012°21'2 4.2
2019-Jun-09 05:00N 45°26' E 012°24'1010.4
2019-Jun-09 04:00N 45°18' E 012°32'917.6
2019-Jun-09 03:30N 45°12' E 012°41'917.4
2019-Jun-09 03:00N 45°06' E 012°50'917.5
2019-Jun-09 02:30N 44°58' E 012°55'917.6
2019-Jun-09 02:00N 44°49' E 012°60'918.2
2019-Jun-09 01:30N 44°41' E 013°04'919.0
2019-Jun-09 01:00N 44°32' E 013°07'7410.8
2019-Jun-09 01:00N 44°36' E 013°00'1531.9 080 / 191021.010.8 25.020.722.0
2019-Jun-09 00:30N 44°23' E 013°11'918.4
2019-Jun-09 00:00N 44°16' E 013°19'918.9
2019-Jun-08 23:31N 44°10' E 013°30'1118.9
2019-Jun-08 22:56N 44°03' E 013°42'819.0
2019-Jun-08 22:30N 43°58' E 013°50'1019.1
2019-Jun-08 22:00N 43°53' E 014°02'1019.0
2019-Jun-08 21:30N 43°48' E 014°13'919.0
2019-Jun-08 21:00N 43°42' E 014°23'7402.1
2019-Jun-08 21:00N 43°36' E 014°18'1519.6 330 / 61022.0 5.4 22.020.522.0
2019-Jun-08 20:14N 43°32' E 014°38'418.9
2019-Jun-08 20:00N 43°29' E 014°42'4119.1
2019-Jun-08 17:53N 43°01' E 015°23'1213.6
2019-Jun-08 17:00N 42°54' E 015°36'118 7.9 340 / 51021.0 5.4 23.018.521.0
2019-Jun-08 02:00N 42°12' E 018°06'1918.5 090 / 191021.010.8 21.019.520.0
2019-Jun-08 01:00N 41°54' E 018°12'4812.7 090 / 161021.010.8 21.019.519.0
2019-Jun-07 21:11N 41°08' E 018°34'315.7
2019-Jun-07 21:00N 41°06' E 018°35'815.5
2019-Jun-07 20:31N 40°58' E 018°37'1020.1
2019-Jun-07 20:00N 40°48' E 018°36'447.9 130 / 101021.0 5.4 22.020.521.0
2019-Jun-07 19:55N 40°49' E 018°40'11616.7
2019-Jun-07 13:00N 39°00' E 019°30'7615.2 270 / 131021.010.8 26.021.722.0
2019-Jun-07 08:00N 37°54' E 020°18'10715.3 310 / 181019.010.8 24.019.622.0
2019-Jun-07 01:00N 36°30' E 021°42'1111.4 320 / 241020.010.8 21.019.520.0
2019-Jun-07 00:00N 36°24' E 021°54'   320 / 221019.010.8 21.019.521.0

Dump ship's entire track history